Time;durP1;ratioP1;P1;durP2;ratioP2;P2;SDS_P1;SDS_P2;PMS_P1;PMS_P2;Temp;Humidity;BMP_temperature;BMP_pressure;BME280_temperature;BME280_humidity;BME280_pressure;Samples;Min_cycle;Max_cycle;Signal;HPM_P1;HPM_P2
2022/09/29 00:00:19;;;;;;;;;;;12.00;99.90;;;;;;5061950;28;20445;-79
2022/09/29 00:02:45;;;;;;;;;;;12.00;99.90;;;;;;5062119;28;20018;-78
2022/09/29 00:05:10;;;;;;;;;;;12.10;99.90;;;;;;5062541;28;19917;-78
2022/09/29 00:07:36;;;;;;;;;;;12.30;99.90;;;;;;5063150;28;20001;-78
2022/09/29 00:10:02;;;;;;;;;;;12.40;99.90;;;;;;5062400;28;20003;-78
2022/09/29 00:12:28;;;;;;;;;;;12.40;99.90;;;;;;5062375;28;19974;-78
2022/09/29 00:14:53;;;;;;;;;;;12.30;99.90;;;;;;5062371;28;19917;-78
2022/09/29 00:17:19;;;;;;;;;;;12.30;99.90;;;;;;5062143;28;19928;-78
2022/09/29 00:19:44;;;;;;;;;;;12.40;99.90;;;;;;5061911;28;19916;-78
2022/09/29 00:22:10;;;;;;;;;;;12.40;99.90;;;;;;5062141;28;19924;-78
2022/09/29 00:24:35;;;;;;;;;;;12.60;99.90;;;;;;5062869;28;19916;-79
2022/09/29 00:27:01;;;;;;;;;;;12.50;99.90;;;;;;5061557;28;20313;-78
2022/09/29 00:29:27;;;;;;;;;;;12.50;99.90;;;;;;5061964;28;19959;-78
2022/09/29 00:31:52;;;;;;;;;;;12.30;99.90;;;;;;5062421;28;19919;-78
2022/09/29 00:34:18;;;;;;;;;;;12.40;99.90;;;;;;5061872;28;19916;-78
2022/09/29 00:36:44;;;;;;;;;;;12.50;99.90;;;;;;5062767;28;19916;-79
2022/09/29 00:39:09;;;;;;;;;;;12.40;99.90;;;;;;5062836;28;20464;-78
2022/09/29 00:41:36;;;;;;;;;;;12.50;99.90;;;;;;5062528;28;19955;-77
2022/09/29 00:44:25;;;;;;;;;;;12.50;99.90;;;;;;5060403;28;19920;-78
2022/09/29 00:46:54;;;;;;;;;;;12.40;99.90;;;;;;5057266;28;19951;-78
2022/09/29 00:49:52;;;;;;;;;;;12.40;99.90;;;;;;5062654;28;19956;-78
2022/09/29 00:52:18;;;;;;;;;;;12.40;99.90;;;;;;5051189;22;19967;-80
2022/09/29 00:54:46;;;;;;;;;;;12.30;99.90;;;;;;5059365;28;20045;-80
2022/09/29 00:57:13;;;;;;;;;;;12.30;99.90;;;;;;5061840;28;19944;-80
2022/09/29 00:59:41;;;;;;;;;;;12.30;99.90;;;;;;5060696;28;19928;-80
2022/09/29 01:02:07;;;;;;;;;;;12.20;99.90;;;;;;5061613;28;20322;-81
2022/09/29 01:04:33;;;;;;;;;;;12.20;99.90;;;;;;5053350;28;19916;-81
2022/09/29 01:06:59;;;;;;;;;;;12.10;99.90;;;;;;5061627;28;19928;-81
2022/09/29 01:09:30;;;;;;;;;;;12.10;99.90;;;;;;5060517;28;19924;-80
2022/09/29 01:11:58;;;;;;;;;;;12.00;99.90;;;;;;5060330;28;19924;-80
2022/09/29 01:14:25;;;;;;;;;;;12.10;99.90;;;;;;5061521;28;19916;-80
2022/09/29 01:16:50;;;;;;;;;;;12.10;99.90;;;;;;5061696;28;20403;-80
2022/09/29 01:19:36;;;;;;;;;;;12.00;99.90;;;;;;5062227;28;19959;-81
2022/09/29 01:22:20;;;;;;;;;;;12.00;99.90;;;;;;5054231;28;19931;-81
2022/09/29 01:24:48;;;;;;;;;;;12.10;99.90;;;;;;5058899;28;19920;-82
2022/09/29 01:27:17;;;;;;;;;;;12.10;99.90;;;;;;5060561;28;19924;-82
2022/09/29 01:29:43;;;;;;;;;;;11.70;99.90;;;;;;5057966;28;19939;-82
2022/09/29 01:32:08;;;;;;;;;;;11.60;99.90;;;;;;5064875;28;20761;-83
2022/09/29 01:34:42;;;;;;;;;;;11.70;99.90;;;;;;5065602;28;20276;-81
2022/09/29 01:37:08;;;;;;;;;;;11.70;99.90;;;;;;5066098;28;19913;-82
2022/09/29 01:39:37;;;;;;;;;;;11.70;99.90;;;;;;5065887;28;19923;-81
2022/09/29 01:42:17;;;;;;;;;;;11.90;99.90;;;;;;5063613;28;20553;-81
2022/09/29 01:44:43;;;;;;;;;;;11.90;99.90;;;;;;5064892;28;20681;-82
2022/09/29 01:47:12;;;;;;;;;;;11.70;99.90;;;;;;5064304;28;20015;-81
2022/09/29 01:49:40;;;;;;;;;;;11.60;99.90;;;;;;5065183;28;19969;-81
2022/09/29 01:52:08;;;;;;;;;;;11.60;99.90;;;;;;5063514;28;19920;-82
2022/09/29 01:54:44;;;;;;;;;;;11.50;99.90;;;;;;5064729;28;19917;-82
2022/09/29 01:57:30;;;;;;;;;;;11.60;99.90;;;;;;5064632;28;19979;-81
2022/09/29 01:59:59;;;;;;;;;;;11.60;99.90;;;;;;5064476;28;19912;-81
2022/09/29 02:02:29;;;;;;;;;;;11.60;99.90;;;;;;5064338;28;20343;-81
2022/09/29 02:04:57;;;;;;;;;;;11.80;99.90;;;;;;5062499;28;19957;-82
2022/09/29 02:07:26;;;;;;;;;;;11.70;99.90;;;;;;5064703;28;20025;-81
2022/09/29 02:09:53;;;;;;;;;;;11.70;99.90;;;;;;5065273;28;19920;-82
2022/09/29 02:12:22;;;;;;;;;;;11.60;99.90;;;;;;5064161;28;19943;-82
2022/09/29 02:14:49;;;;;;;;;;;11.70;99.90;;;;;;5065233;28;19916;-81
2022/09/29 02:17:19;;;;;;;;;;;11.60;99.90;;;;;;5063120;28;21631;-82
2022/09/29 02:19:46;;;;;;;;;;;11.60;99.90;;;;;;5064785;28;20035;-82
2022/09/29 02:22:13;;;;;;;;;;;11.70;99.90;;;;;;5064042;28;19920;-83
2022/09/29 02:24:39;;;;;;;;;;;11.70;99.90;;;;;;5064535;28;19916;-83
2022/09/29 02:27:04;;;;;;;;;;;11.60;99.90;;;;;;5062577;28;19931;-87
2022/09/29 02:29:31;;;;;;;;;;;11.60;99.90;;;;;;5063070;28;19923;-85
2022/09/29 02:32:00;;;;;;;;;;;11.50;99.90;;;;;;5062639;28;19924;-85
2022/09/29 02:34:26;;;;;;;;;;;11.60;99.90;;;;;;5064234;28;19959;-85
2022/09/29 02:37:08;;;;;;;;;;;11.50;99.90;;;;;;5056287;28;20019;-85
2022/09/29 02:39:33;;;;;;;;;;;11.50;99.90;;;;;;5063597;28;19923;-84
2022/09/29 02:42:11;;;;;;;;;;;11.50;99.90;;;;;;5063826;28;19920;-83
2022/09/29 02:44:42;;;;;;;;;;;11.60;99.90;;;;;;5063809;28;19985;-82
2022/09/29 02:47:15;;;;;;;;;;;11.60;99.90;;;;;;5061642;28;19928;-83
2022/09/29 02:49:43;;;;;;;;;;;11.60;99.90;;;;;;5063369;28;19932;-82
2022/09/29 02:52:30;;;;;;;;;;;11.60;99.90;;;;;;5061279;28;19924;-82
2022/09/29 02:55:05;;;;;;;;;;;11.60;99.90;;;;;;5058860;28;20617;-81
2022/09/29 02:57:40;;;;;;;;;;;11.60;99.90;;;;;;5063288;28;19916;-81
2022/09/29 03:00:08;;;;;;;;;;;11.50;99.90;;;;;;5063670;28;19994;-82
2022/09/29 03:02:34;;;;;;;;;;;11.50;99.90;;;;;;5062169;28;20433;-81
2022/09/29 03:05:00;;;;;;;;;;;11.60;99.90;;;;;;5064157;28;19913;-82
2022/09/29 03:07:26;;;;;;;;;;;11.70;99.90;;;;;;5062512;28;19920;-84
2022/09/29 03:09:52;;;;;;;;;;;11.70;99.90;;;;;;5062967;28;20394;-83
2022/09/29 03:12:17;;;;;;;;;;;11.80;99.90;;;;;;5060477;28;19916;-83
2022/09/29 03:14:43;;;;;;;;;;;11.90;99.90;;;;;;5063967;28;19917;-83
2022/09/29 03:17:09;;;;;;;;;;;11.80;99.90;;;;;;5062201;28;20061;-84
2022/09/29 03:19:34;;;;;;;;;;;11.80;99.90;;;;;;5062737;28;20007;-83
2022/09/29 03:22:00;;;;;;;;;;;11.80;99.90;;;;;;5062363;28;20077;-84
2022/09/29 03:24:25;;;;;;;;;;;11.80;99.90;;;;;;5063606;28;20380;-83
2022/09/29 03:26:51;;;;;;;;;;;11.80;99.90;;;;;;5062316;28;20281;-84
2022/09/29 03:29:17;;;;;;;;;;;11.70;99.90;;;;;;5063351;28;20430;-84
2022/09/29 03:31:42;;;;;;;;;;;11.90;99.90;;;;;;5062708;28;19995;-83
2022/09/29 03:34:08;;;;;;;;;;;11.70;99.90;;;;;;5061150;28;19917;-83
2022/09/29 03:36:33;;;;;;;;;;;11.70;99.90;;;;;;5062625;28;19916;-82
2022/09/29 03:38:59;;;;;;;;;;;11.70;99.90;;;;;;5061424;28;19916;-83
2022/09/29 03:41:24;;;;;;;;;;;11.80;99.90;;;;;;5061742;28;19950;-84
2022/09/29 03:43:50;;;;;;;;;;;11.80;99.90;;;;;;5062679;28;19962;-83
2022/09/29 03:46:15;;;;;;;;;;;11.80;99.90;;;;;;5061520;28;19969;-82
2022/09/29 03:48:41;;;;;;;;;;;11.70;99.90;;;;;;5062303;28;20386;-83
2022/09/29 03:51:07;;;;;;;;;;;11.70;99.90;;;;;;5062274;28;19944;-83
2022/09/29 03:53:34;;;;;;;;;;;11.70;99.90;;;;;;5061868;28;20411;-83
2022/09/29 03:55:59;;;;;;;;;;;11.80;99.90;;;;;;5062314;28;19953;-83
2022/09/29 03:58:25;;;;;;;;;;;11.80;99.90;;;;;;5063175;28;19986;-83
2022/09/29 04:00:50;;;;;;;;;;;11.70;99.90;;;;;;5062767;28;20518;-82
2022/09/29 04:03:17;;;;;;;;;;;11.70;99.90;;;;;;5061508;28;20626;-85
2022/09/29 04:05:47;;;;;;;;;;;11.70;99.90;;;;;;5060940;28;19923;-84
2022/09/29 04:08:13;;;;;;;;;;;11.70;99.90;;;;;;5062438;28;19916;-84
2022/09/29 04:10:39;;;;;;;;;;;11.50;99.90;;;;;;5060091;28;20777;-84
2022/09/29 04:13:05;;;;;;;;;;;11.60;99.90;;;;;;5059848;28;19923;-84
2022/09/29 04:15:31;;;;;;;;;;;11.60;99.90;;;;;;5063144;28;19916;-81
2022/09/29 04:17:56;;;;;;;;;;;11.60;99.90;;;;;;5060427;28;19928;-79
2022/09/29 04:20:22;;;;;;;;;;;11.50;99.90;;;;;;5059835;28;20376;-78
2022/09/29 04:22:48;;;;;;;;;;;11.50;99.90;;;;;;5062010;28;19928;-78
2022/09/29 04:25:13;;;;;;;;;;;11.50;99.90;;;;;;5062788;28;19916;-79
2022/09/29 04:27:39;;;;;;;;;;;11.50;99.90;;;;;;5061859;28;19916;-81
2022/09/29 04:30:05;;;;;;;;;;;11.50;99.90;;;;;;5060726;28;19916;-80
2022/09/29 04:32:31;;;;;;;;;;;11.50;99.90;;;;;;5060284;28;19924;-79
2022/09/29 04:34:56;;;;;;;;;;;11.40;99.90;;;;;;5060034;28;19916;-80
2022/09/29 04:37:22;;;;;;;;;;;11.40;99.90;;;;;;5062598;28;20407;-80
2022/09/29 04:39:47;;;;;;;;;;;11.40;99.90;;;;;;5062135;28;19923;-79
2022/09/29 04:42:13;;;;;;;;;;;11.40;99.90;;;;;;5063306;28;19928;-79
2022/09/29 04:44:38;;;;;;;;;;;11.30;99.90;;;;;;5061451;28;19942;-80
2022/09/29 04:47:04;;;;;;;;;;;11.40;99.90;;;;;;5061891;28;19920;-80
2022/09/29 04:49:30;;;;;;;;;;;11.30;99.90;;;;;;5062148;28;20134;-78
2022/09/29 04:51:55;;;;;;;;;;;11.40;99.90;;;;;;5061431;28;20396;-78
2022/09/29 04:54:21;;;;;;;;;;;11.40;99.90;;;;;;5062385;28;19986;-78
2022/09/29 04:56:47;;;;;;;;;;;11.50;99.90;;;;;;5062377;28;19955;-78
2022/09/29 04:59:13;;;;;;;;;;;11.50;99.90;;;;;;5061783;28;19976;-79
2022/09/29 05:01:39;;;;;;;;;;;11.40;99.90;;;;;;5061747;28;20014;-80
2022/09/29 05:04:04;;;;;;;;;;;11.30;99.90;;;;;;5060324;28;19912;-79
2022/09/29 05:06:30;;;;;;;;;;;11.40;99.90;;;;;;5066423;28;20406;-78
2022/09/29 05:08:55;;;;;;;;;;;11.40;99.90;;;;;;5064986;28;20419;-80
2022/09/29 05:11:21;;;;;;;;;;;11.40;99.90;;;;;;5065373;28;19920;-81
2022/09/29 05:13:48;;;;;;;;;;;11.40;99.90;;;;;;5065310;28;20489;-81
2022/09/29 05:16:14;;;;;;;;;;;11.40;99.90;;;;;;5063823;28;20002;-81
2022/09/29 05:18:39;;;;;;;;;;;11.40;99.90;;;;;;5063501;28;20098;-79
2022/09/29 05:21:05;;;;;;;;;;;11.40;99.90;;;;;;5063809;28;19990;-81
2022/09/29 05:23:31;;;;;;;;;;;11.40;99.90;;;;;;5065904;28;19920;-80
2022/09/29 05:26:02;;;;;;;;;;;11.40;99.90;;;;;;5066688;28;19912;-79
2022/09/29 05:28:27;;;;;;;;;;;11.40;99.90;;;;;;5064903;28;19916;-78
2022/09/29 05:30:53;;;;;;;;;;;11.40;99.90;;;;;;5066343;28;19923;-79
2022/09/29 05:33:18;;;;;;;;;;;11.40;99.90;;;;;;5065619;28;19912;-83
2022/09/29 05:35:44;;;;;;;;;;;11.30;99.90;;;;;;5063278;28;19923;-83
2022/09/29 05:38:09;;;;;;;;;;;11.20;99.90;;;;;;5064595;28;19948;-86
2022/09/29 05:40:36;;;;;;;;;;;11.20;99.90;;;;;;5065212;28;20019;-85
2022/09/29 05:43:02;;;;;;;;;;;11.20;99.90;;;;;;5066189;28;20005;-86
2022/09/29 05:45:27;;;;;;;;;;;11.20;99.90;;;;;;5066076;28;20399;-87
2022/09/29 05:47:53;;;;;;;;;;;11.20;99.90;;;;;;5064918;28;20003;-86
2022/09/29 05:50:19;;;;;;;;;;;11.30;99.90;;;;;;5064912;28;20366;-85
2022/09/29 05:52:48;;;;;;;;;;;11.20;99.90;;;;;;5065551;28;19931;-86
2022/09/29 05:55:13;;;;;;;;;;;11.30;99.90;;;;;;5066111;28;19913;-86
2022/09/29 05:57:39;;;;;;;;;;;11.30;99.90;;;;;;5064177;28;19916;-86
2022/09/29 06:00:05;;;;;;;;;;;11.30;99.90;;;;;;5066538;28;19979;-84
2022/09/29 06:02:31;;;;;;;;;;;11.40;99.90;;;;;;5065854;28;19955;-83
2022/09/29 06:04:57;;;;;;;;;;;11.60;99.90;;;;;;5065497;28;20072;-82
2022/09/29 06:07:22;;;;;;;;;;;11.70;99.90;;;;;;5064418;28;19916;-84
2022/09/29 06:09:48;;;;;;;;;;;11.80;99.90;;;;;;5063573;28;20013;-83
2022/09/29 06:12:13;;;;;;;;;;;11.80;99.90;;;;;;5065184;28;19959;-91
2022/09/29 06:14:39;;;;;;;;;;;11.90;99.90;;;;;;5066673;28;20381;-88
2022/09/29 06:17:04;;;;;;;;;;;11.90;99.90;;;;;;5065449;28;19955;-87
2022/09/29 06:19:30;;;;;;;;;;;11.90;99.90;;;;;;5065432;28;19974;-81
2022/09/29 06:21:55;;;;;;;;;;;11.80;99.90;;;;;;5063897;28;20019;-84
2022/09/29 06:24:21;;;;;;;;;;;11.90;99.90;;;;;;5065668;28;19917;-83
2022/09/29 06:26:47;;;;;;;;;;;12.00;99.90;;;;;;5065668;28;19971;-83
2022/09/29 06:29:14;;;;;;;;;;;12.00;99.90;;;;;;5062264;28;19916;-83
2022/09/29 06:31:39;;;;;;;;;;;12.10;99.90;;;;;;5064803;28;19913;-82
2022/09/29 06:34:05;;;;;;;;;;;12.20;99.90;;;;;;5065885;28;20474;-82
2022/09/29 06:39:18;;;;;;;;;;;12.20;99.90;;;;;;5062039;28;19919;-82
2022/09/29 06:41:50;;;;;;;;;;;12.40;99.90;;;;;;5060752;28;19928;-84
2022/09/29 06:44:16;;;;;;;;;;;12.30;99.90;;;;;;5057588;28;19922;-83
2022/09/29 06:46:42;;;;;;;;;;;12.40;99.90;;;;;;5064346;28;19912;-83
2022/09/29 06:49:07;;;;;;;;;;;12.50;99.90;;;;;;5064074;28;19919;-83
2022/09/29 06:51:34;;;;;;;;;;;12.60;99.90;;;;;;5066265;28;19919;-83
2022/09/29 06:53:59;;;;;;;;;;;12.60;99.90;;;;;;5065161;28;20063;-83
2022/09/29 06:56:25;;;;;;;;;;;12.60;99.90;;;;;;5065499;28;20459;-83
2022/09/29 06:58:51;;;;;;;;;;;12.70;99.90;;;;;;5065575;28;19921;-83
2022/09/29 07:01:16;;;;;;;;;;;12.70;99.90;;;;;;5065541;28;20444;-83
2022/09/29 07:03:42;;;;;;;;;;;12.80;99.90;;;;;;5065470;28;19916;-83
2022/09/29 07:06:08;;;;;;;;;;;12.70;99.90;;;;;;5066097;28;20047;-83
2022/09/29 07:08:35;;;;;;;;;;;12.70;99.90;;;;;;5065087;28;19981;-83
2022/09/29 07:11:02;;;;;;;;;;;12.70;99.90;;;;;;5064578;28;19912;-83
2022/09/29 07:13:27;;;;;;;;;;;12.80;99.90;;;;;;5065778;28;20652;-84
2022/09/29 07:15:53;;;;;;;;;;;12.70;99.90;;;;;;5063654;28;20009;-83
2022/09/29 07:18:19;;;;;;;;;;;12.70;99.90;;;;;;5065475;28;19995;-83
2022/09/29 07:20:45;;;;;;;;;;;12.80;99.90;;;;;;5063999;28;20031;-83
2022/09/29 07:23:10;;;;;;;;;;;12.90;99.90;;;;;;5065151;28;19927;-82
2022/09/29 07:25:36;;;;;;;;;;;13.10;99.90;;;;;;5065278;28;19971;-84
2022/09/29 07:28:02;;;;;;;;;;;13.20;99.90;;;;;;5063320;28;20018;-83
2022/09/29 07:30:27;;;;;;;;;;;13.20;99.90;;;;;;5051482;28;19966;-83
2022/09/29 07:32:54;;;;;;;;;;;13.30;99.90;;;;;;5045330;28;20367;-84
2022/09/29 07:35:20;;;;;;;;;;;13.20;99.90;;;;;;5045221;28;19974;-83
2022/09/29 07:37:52;;;;;;;;;;;13.10;99.90;;;;;;5045336;28;20319;-83
2022/09/29 07:40:18;;;;;;;;;;;13.20;99.90;;;;;;5045812;28;19909;-83
2022/09/29 07:42:43;;;;;;;;;;;13.30;99.90;;;;;;5045269;28;19957;-83
2022/09/29 07:45:09;;;;;;;;;;;13.50;99.90;;;;;;5059195;28;19916;-83
2022/09/29 07:47:34;;;;;;;;;;;13.40;99.90;;;;;;5064755;28;19920;-83
2022/09/29 07:50:00;;;;;;;;;;;13.50;99.90;;;;;;5065010;28;20403;-84
2022/09/29 07:52:26;;;;;;;;;;;13.50;99.90;;;;;;5062882;28;20013;-84
2022/09/29 07:54:51;;;;;;;;;;;13.60;99.90;;;;;;5065066;28;19922;-84
2022/09/29 07:57:17;;;;;;;;;;;13.60;99.90;;;;;;5064776;28;19912;-83
2022/09/29 07:59:42;;;;;;;;;;;13.50;99.90;;;;;;5062892;28;19971;-83
2022/09/29 08:02:08;;;;;;;;;;;13.40;99.90;;;;;;5064236;28;19926;-83
2022/09/29 08:04:34;;;;;;;;;;;13.60;99.90;;;;;;5064408;28;20498;-83
2022/09/29 08:06:59;;;;;;;;;;;13.80;99.90;;;;;;5063163;28;20567;-83
2022/09/29 08:09:25;;;;;;;;;;;14.00;99.90;;;;;;5063522;28;19919;-83
2022/09/29 08:11:50;;;;;;;;;;;14.00;99.90;;;;;;5064330;28;19916;-83
2022/09/29 08:14:16;;;;;;;;;;;14.30;99.90;;;;;;5062825;28;20003;-84
2022/09/29 08:16:41;;;;;;;;;;;14.50;99.90;;;;;;5064429;28;19969;-83
2022/09/29 08:19:07;;;;;;;;;;;14.70;99.90;;;;;;5064331;28;19912;-83
2022/09/29 08:21:36;;;;;;;;;;;14.70;99.90;;;;;;5063621;28;20061;-83
2022/09/29 08:24:03;;;;;;;;;;;15.00;99.90;;;;;;5063894;28;19919;-83
2022/09/29 08:26:30;;;;;;;;;;;15.00;99.90;;;;;;5062403;28;19913;-84
2022/09/29 08:28:56;;;;;;;;;;;14.90;99.90;;;;;;5062511;28;20680;-83
2022/09/29 08:31:22;;;;;;;;;;;14.90;99.90;;;;;;5064441;28;19919;-84
2022/09/29 08:33:51;;;;;;;;;;;15.20;99.90;;;;;;5062806;28;19923;-83
2022/09/29 08:36:17;;;;;;;;;;;15.10;99.90;;;;;;5062880;28;19982;-84
2022/09/29 08:38:50;;;;;;;;;;;15.40;99.90;;;;;;5063861;28;19920;-83
2022/09/29 08:41:19;;;;;;;;;;;15.70;99.90;;;;;;5062563;28;19945;-84
2022/09/29 08:43:46;;;;;;;;;;;15.50;99.90;;;;;;5063848;28;19913;-84
2022/09/29 08:46:24;;;;;;;;;;;15.60;99.90;;;;;;5064342;28;19947;-84
2022/09/29 08:48:51;;;;;;;;;;;15.90;99.90;;;;;;5062489;28;19908;-83
2022/09/29 08:51:20;;;;;;;;;;;16.50;99.90;;;;;;5062033;28;19969;-84
2022/09/29 08:53:49;;;;;;;;;;;17.00;99.90;;;;;;5061917;28;20062;-84
2022/09/29 08:56:16;;;;;;;;;;;16.90;99.90;;;;;;5063738;28;20381;-83
2022/09/29 08:58:42;;;;;;;;;;;16.30;99.90;;;;;;5061675;28;19916;-83
2022/09/29 09:01:28;;;;;;;;;;;15.40;99.90;;;;;;5063098;28;19924;-84
2022/09/29 09:04:03;;;;;;;;;;;15.30;99.90;;;;;;5061697;28;19919;-84
2022/09/29 09:06:30;;;;;;;;;;;15.20;99.90;;;;;;5061448;28;21402;-83
2022/09/29 09:08:56;;;;;;;;;;;14.80;99.90;;;;;;5063521;28;19919;-84
2022/09/29 09:11:40;;;;;;;;;;;14.70;99.90;;;;;;5063545;28;19913;-83
2022/09/29 09:14:06;;;;;;;;;;;14.80;99.90;;;;;;5062022;28;19935;-84
2022/09/29 09:16:44;;;;;;;;;;;14.60;99.90;;;;;;5064007;28;20353;-84
2022/09/29 09:19:12;;;;;;;;;;;14.70;99.90;;;;;;5063736;28;19908;-84
2022/09/29 09:21:38;;;;;;;;;;;14.70;99.90;;;;;;5063828;28;20673;-84
2022/09/29 09:24:21;;;;;;;;;;;14.90;99.90;;;;;;5062183;28;19986;-84
2022/09/29 09:26:47;;;;;;;;;;;15.20;99.90;;;;;;5064097;28;20559;-84
2022/09/29 09:29:17;;;;;;;;;;;15.30;99.90;;;;;;5061910;28;19913;-84
2022/09/29 09:31:51;;;;;;;;;;;15.60;99.90;;;;;;5063567;28;20616;-83
2022/09/29 09:34:19;;;;;;;;;;;15.80;99.90;;;;;;5063363;28;19913;-84
2022/09/29 09:36:46;;;;;;;;;;;15.50;99.90;;;;;;5063732;28;20399;-84
2022/09/29 09:39:14;;;;;;;;;;;15.80;99.90;;;;;;5062151;28;19916;-84
2022/09/29 09:41:42;;;;;;;;;;;15.90;99.90;;;;;;5063357;28;19920;-84
2022/09/29 09:44:15;;;;;;;;;;;15.90;99.90;;;;;;5062779;28;19924;-83
2022/09/29 09:47:13;;;;;;;;;;;15.70;99.90;;;;;;5061677;28;19917;-84
2022/09/29 09:49:44;;;;;;;;;;;15.30;99.90;;;;;;5040396;28;19913;-83
2022/09/29 09:52:28;;;;;;;;;;;15.10;99.90;;;;;;5037809;28;19917;-85
2022/09/29 09:54:56;;;;;;;;;;;14.60;99.90;;;;;;5042299;28;19987;-85
2022/09/29 09:57:27;;;;;;;;;;;14.50;99.90;;;;;;5034627;28;19916;-84
2022/09/29 09:59:59;;;;;;;;;;;14.50;99.90;;;;;;5029886;28;19944;-84
2022/09/29 10:02:24;;;;;;;;;;;14.70;99.90;;;;;;5018856;28;20348;-82
2022/09/29 10:04:51;;;;;;;;;;;14.50;99.90;;;;;;5040613;28;19921;-83
2022/09/29 10:07:18;;;;;;;;;;;14.70;99.90;;;;;;5042359;28;19916;-83
2022/09/29 10:09:44;;;;;;;;;;;14.70;99.90;;;;;;5026582;28;20307;-83
2022/09/29 10:12:19;;;;;;;;;;;14.60;99.90;;;;;;5032124;28;19953;-83
2022/09/29 10:15:05;;;;;;;;;;;15.40;99.90;;;;;;5020337;28;20380;-84
2022/09/29 10:17:36;;;;;;;;;;;16.40;99.90;;;;;;5024139;28;19959;-85
2022/09/29 10:20:06;;;;;;;;;;;16.90;99.90;;;;;;5033557;28;21190;-84
2022/09/29 10:22:32;;;;;;;;;;;17.10;99.90;;;;;;5023505;28;19951;-84
2022/09/29 10:25:18;;;;;;;;;;;17.30;99.90;;;;;;5027205;28;19917;-85
2022/09/29 10:27:48;;;;;;;;;;;17.50;99.90;;;;;;5065542;28;20015;-85
2022/09/29 10:30:34;;;;;;;;;;;18.10;99.90;;;;;;5062007;28;20406;-85
2022/09/29 10:33:01;;;;;;;;;;;18.20;99.90;;;;;;5065067;28;19920;-85
2022/09/29 10:35:37;;;;;;;;;;;17.80;99.90;;;;;;5064942;28;19978;-85
2022/09/29 10:38:06;;;;;;;;;;;18.20;99.90;;;;;;5064361;28;20004;-85
2022/09/29 10:40:32;;;;;;;;;;;18.20;99.90;;;;;;5065174;28;19920;-85
2022/09/29 10:42:57;;;;;;;;;;;18.10;99.90;;;;;;5062878;28;20363;-85
2022/09/29 10:45:28;;;;;;;;;;;18.20;99.90;;;;;;5063634;28;19923;-85
2022/09/29 10:47:56;;;;;;;;;;;18.00;99.90;;;;;;5065556;28;19916;-85
2022/09/29 10:50:26;;;;;;;;;;;17.70;99.90;;;;;;5065945;28;19920;-86
2022/09/29 10:52:56;;;;;;;;;;;17.90;99.90;;;;;;5062385;28;19928;-85
2022/09/29 10:55:23;;;;;;;;;;;17.70;99.90;;;;;;5063920;28;19967;-85
2022/09/29 10:57:50;;;;;;;;;;;17.70;99.90;;;;;;5064409;28;20467;-85
2022/09/29 11:00:25;;;;;;;;;;;17.80;99.90;;;;;;5063762;28;19946;-85
2022/09/29 11:02:51;;;;;;;;;;;19.00;99.90;;;;;;5064985;28;20400;-86
2022/09/29 11:05:19;;;;;;;;;;;18.80;99.90;;;;;;5063861;28;19916;-85
2022/09/29 11:07:45;;;;;;;;;;;18.20;99.90;;;;;;5063233;28;20371;-85
2022/09/29 11:10:40;;;;;;;;;;;17.60;99.90;;;;;;5063249;28;19993;-86
2022/09/29 11:13:18;;;;;;;;;;;17.50;99.90;;;;;;5055100;28;19922;-85
2022/09/29 11:15:44;;;;;;;;;;;17.30;99.90;;;;;;5064942;28;19916;-85
2022/09/29 11:18:17;;;;;;;;;;;17.30;99.90;;;;;;5063502;28;19965;-86
2022/09/29 11:20:44;;;;;;;;;;;17.00;99.90;;;;;;5062125;28;20545;-85
2022/09/29 11:23:25;;;;;;;;;;;17.20;99.90;;;;;;5063206;28;19950;-85
2022/09/29 11:25:51;;;;;;;;;;;17.00;99.90;;;;;;5063479;28;19916;-86
2022/09/29 11:28:17;;;;;;;;;;;16.80;99.90;;;;;;5063425;28;19916;-86
2022/09/29 11:30:49;;;;;;;;;;;17.30;99.90;;;;;;5063231;28;19969;-85
2022/09/29 11:33:14;;;;;;;;;;;16.80;99.90;;;;;;5063686;28;20011;-85
2022/09/29 11:35:47;;;;;;;;;;;17.10;99.90;;;;;;5065018;28;19998;-85
2022/09/29 11:38:32;;;;;;;;;;;17.50;99.90;;;;;;5059385;28;20020;-86
2022/09/29 11:41:06;;;;;;;;;;;17.80;99.90;;;;;;5064747;28;19916;-85
2022/09/29 11:43:53;;;;;;;;;;;17.10;99.90;;;;;;5063759;28;20441;-85
2022/09/29 11:46:33;;;;;;;;;;;17.50;99.90;;;;;;5043716;28;20293;-89
2022/09/29 11:49:05;;;;;;;;;;;17.20;99.90;;;;;;5043267;28;19913;-85
2022/09/29 11:51:37;;;;;;;;;;;17.30;99.90;;;;;;5063446;28;20635;-85
2022/09/29 11:54:10;;;;;;;;;;;17.40;99.90;;;;;;5064496;28;20411;-83
2022/09/29 11:56:49;;;;;;;;;;;17.40;99.90;;;;;;5064080;28;19916;-85
2022/09/29 11:59:18;;;;;;;;;;;17.40;99.90;;;;;;5064370;28;19920;-87
2022/09/29 12:02:04;;;;;;;;;;;17.80;99.90;;;;;;5063009;28;19928;-87
2022/09/29 13:16:59;;;;;;;;;;;16.50;99.90;;;;;;5986067;22;20109;-78
2022/09/29 13:19:44;;;;;;;;;;;16.50;99.90;;;;;;5016720;28;20043;-78
2022/09/29 13:22:22;;;;;;;;;;;16.70;99.90;;;;;;5015549;28;19921;-77
2022/09/29 13:24:53;;;;;;;;;;;16.60;99.90;;;;;;5022722;28;19918;-78
2022/09/29 13:27:26;;;;;;;;;;;16.80;99.90;;;;;;5022404;28;19987;-78
2022/09/29 13:30:15;;;;;;;;;;;17.10;99.90;;;;;;5030970;28;19913;-87
2022/09/29 13:32:43;;;;;;;;;;;17.10;99.90;;;;;;5030999;28;19909;-85
2022/09/29 13:35:17;;;;;;;;;;;17.20;99.90;;;;;;5029759;28;19913;-82
2022/09/29 13:37:46;;;;;;;;;;;17.00;99.90;;;;;;5009393;28;19921;-81
2022/09/29 13:40:24;;;;;;;;;;;17.20;99.90;;;;;;5012368;28;19991;-81
2022/09/29 13:42:53;;;;;;;;;;;17.10;99.90;;;;;;5027996;28;19921;-78
2022/09/29 13:45:19;;;;;;;;;;;17.10;99.90;;;;;;5030488;28;19946;-78
2022/09/29 13:47:46;;;;;;;;;;;17.20;99.90;;;;;;5006289;28;20343;-78
2022/09/29 13:50:30;;;;;;;;;;;17.40;99.90;;;;;;5031218;28;19964;-78
2022/09/29 13:53:15;;;;;;;;;;;17.30;99.90;;;;;;5028159;28;19963;-77
2022/09/29 13:55:51;;;;;;;;;;;17.50;99.90;;;;;;5026880;28;19917;-77
2022/09/29 13:58:24;;;;;;;;;;;17.40;99.90;;;;;;5039267;28;19939;-77
2022/09/29 14:00:50;;;;;;;;;;;16.90;99.70;;;;;;5028015;28;19977;-77
2022/09/29 14:03:22;;;;;;;;;;;17.00;99.90;;;;;;5033893;28;20473;-77
2022/09/29 14:05:52;;;;;;;;;;;17.30;99.90;;;;;;5032342;28;19951;-78
2022/09/29 14:08:27;;;;;;;;;;;17.20;99.80;;;;;;5030727;28;20791;-76
2022/09/29 14:10:58;;;;;;;;;;;16.60;99.90;;;;;;5023194;28;19929;-78
2022/09/29 14:13:28;;;;;;;;;;;17.20;99.90;;;;;;5030563;28;20598;-77
2022/09/29 14:15:59;;;;;;;;;;;17.60;99.90;;;;;;5028225;28;19920;-77
2022/09/29 14:18:25;;;;;;;;;;;17.60;99.90;;;;;;5029302;28;19917;-78
2022/09/29 14:20:58;;;;;;;;;;;17.60;99.90;;;;;;5027333;28;19970;-79
2022/09/29 14:23:42;;;;;;;;;;;17.50;99.90;;;;;;5027894;28;19925;-81
2022/09/29 14:26:28;;;;;;;;;;;17.10;99.90;;;;;;5010007;28;19921;-79
2022/09/29 14:28:55;;;;;;;;;;;17.30;99.90;;;;;;5025535;28;19917;-79
2022/09/29 14:31:21;;;;;;;;;;;17.40;99.90;;;;;;5028493;28;21706;-80
2022/09/29 14:33:48;;;;;;;;;;;17.40;99.90;;;;;;5027165;28;19917;-80
2022/09/29 14:36:18;;;;;;;;;;;17.30;99.90;;;;;;5021448;28;19917;-81
2022/09/29 14:38:46;;;;;;;;;;;17.40;99.90;;;;;;5015667;28;19953;-83
2022/09/29 14:41:22;;;;;;;;;;;17.50;99.90;;;;;;5006610;28;20012;-81
2022/09/29 14:43:49;;;;;;;;;;;17.50;99.90;;;;;;5026191;28;19956;-80
2022/09/29 14:52:20;;;;;;;;;;;16.80;99.90;;;;;;5011626;28;19924;-78
2022/09/29 14:54:58;;;;;;;;;;;16.50;99.90;;;;;;5020283;28;19917;-79
2022/09/29 14:57:42;;;;;;;;;;;16.40;99.90;;;;;;5013282;28;19960;-79
2022/09/29 15:00:18;;;;;;;;;;;16.60;99.90;;;;;;5016609;28;19976;-81
2022/09/29 15:02:48;;;;;;;;;;;16.40;99.90;;;;;;5010088;28;19932;-80
2022/09/29 15:05:23;;;;;;;;;;;16.40;99.90;;;;;;5012232;28;20419;-80
2022/09/29 15:07:48;;;;;;;;;;;16.20;99.90;;;;;;5013384;28;19931;-80
2022/09/29 15:10:21;;;;;;;;;;;16.20;99.90;;;;;;5006854;28;19921;-79
2022/09/29 15:12:49;;;;;;;;;;;16.10;99.90;;;;;;5018314;28;19924;-80
2022/09/29 15:15:41;;;;;;;;;;;16.30;99.90;;;;;;5014376;28;19919;-80
2022/09/29 15:18:14;;;;;;;;;;;16.40;99.90;;;;;;5012279;28;19928;-81
2022/09/29 15:21:15;;;;;;;;;;;16.60;99.90;;;;;;5025787;28;19921;-82
2022/09/29 15:23:49;;;;;;;;;;;16.70;99.90;;;;;;4958606;28;19926;-83
2022/09/29 15:26:16;;;;;;;;;;;16.80;99.90;;;;;;5008089;28;19924;-81
2022/09/29 15:28:42;;;;;;;;;;;16.70;99.90;;;;;;5027790;28;19917;-80
2022/09/29 15:31:15;;;;;;;;;;;16.40;99.90;;;;;;5016152;28;19921;-82
2022/09/29 15:33:41;;;;;;;;;;;16.20;99.90;;;;;;5026955;28;20643;-82
2022/09/29 15:36:16;;;;;;;;;;;16.20;99.90;;;;;;5026984;28;19943;-82
2022/09/29 15:38:41;;;;;;;;;;;16.10;99.90;;;;;;5008323;28;20229;-80
2022/09/29 15:41:10;;;;;;;;;;;16.00;99.90;;;;;;5025964;28;19959;-80
2022/09/29 15:43:43;;;;;;;;;;;16.00;99.90;;;;;;5014962;28;20012;-80
2022/09/29 15:46:20;;;;;;;;;;;16.10;99.90;;;;;;5020276;28;20407;-80
2022/09/29 15:49:04;;;;;;;;;;;16.10;99.90;;;;;;5015347;28;20641;-80